createdAt,value
2023-07-29T00:11:19.916Z,9.457154
2023-07-29T00:12:19.863Z,9.457211
2023-07-29T00:13:22.442Z,9.457278
2023-07-29T00:14:19.849Z,9.457404
2023-07-29T00:15:19.857Z,9.457230
2023-07-29T00:16:19.855Z,9.457220
2023-07-29T00:17:19.814Z,9.457263
2023-07-29T00:18:19.806Z,9.457060
2023-07-29T00:19:19.779Z,9.456980
2023-07-29T00:20:19.801Z,9.457195
2023-07-29T00:21:19.770Z,9.457365
2023-07-29T00:22:19.766Z,9.457365
2023-07-29T00:23:19.736Z,9.457109
2023-07-29T00:24:19.750Z,9.457150
2023-07-29T00:25:19.774Z,9.457174
2023-07-29T00:26:19.723Z,9.457091
2023-07-29T00:27:19.703Z,9.457045
2023-07-29T00:28:23.182Z,9.457092
2023-07-29T00:29:20.704Z,9.457353
2023-07-29T00:30:19.697Z,9.457353
2023-07-29T00:31:19.729Z,9.457179
2023-07-29T00:32:19.716Z,9.457226
2023-07-29T00:33:19.660Z,9.457343
2023-07-29T00:34:19.670Z,9.457436
2023-07-29T00:35:19.618Z,9.457195
2023-07-29T00:36:19.624Z,9.457125
2023-07-29T00:37:19.611Z,9.457076
2023-07-29T00:38:19.597Z,9.457460
2023-07-29T00:39:19.614Z,9.457308
2023-07-29T00:40:19.581Z,9.457168
2023-07-29T00:41:19.582Z,9.456995
2023-07-29T00:42:19.565Z,9.457125
2023-07-29T00:43:19.609Z,9.457101
2023-07-29T00:44:19.568Z,9.457154
2023-07-29T00:45:19.541Z,9.456935
2023-07-29T00:46:19.565Z,9.457302
2023-07-29T00:47:19.531Z,9.456986
2023-07-29T00:48:19.666Z,9.457046
2023-07-29T00:49:19.523Z,9.457003
2023-07-29T00:50:19.486Z,9.457252
2023-07-29T00:51:19.475Z,9.457161
2023-07-29T00:52:19.468Z,9.456977
2023-07-29T00:53:19.511Z,9.456479
2023-07-29T00:54:19.444Z,9.456578
2023-07-29T00:55:19.454Z,9.456527
2023-07-29T00:56:19.430Z,9.456380
2023-07-29T00:57:19.441Z,9.456946
2023-07-29T00:58:19.429Z,9.456628
2023-07-29T00:59:19.393Z,9.456468
2023-07-29T01:00:19.392Z,9.456922
2023-07-29T01:01:19.416Z,9.457006
2023-07-29T01:02:19.384Z,9.457043
2023-07-29T01:03:19.446Z,9.457026
2023-07-29T01:04:19.355Z,9.456688
2023-07-29T01:05:19.342Z,9.456625
2023-07-29T01:06:19.324Z,9.456620
2023-07-29T01:07:19.329Z,9.457081
2023-07-29T01:08:19.321Z,9.457122
2023-07-29T01:09:19.305Z,9.457066
2023-07-29T01:10:19.298Z,9.456975
2023-07-29T01:11:19.304Z,9.457166
2023-07-29T01:12:19.294Z,9.457173
2023-07-29T01:13:19.256Z,9.457178
2023-07-29T01:14:19.242Z,9.457187
2023-07-29T01:15:20.824Z,9.457264
2023-07-29T01:16:20.288Z,9.457200
2023-07-29T01:17:19.218Z,9.457111
2023-07-29T01:18:19.218Z,9.457100
2023-07-29T01:19:19.204Z,9.456970
2023-07-29T01:20:19.186Z,9.456990
2023-07-29T01:21:19.207Z,9.456980
2023-07-29T01:22:19.172Z,9.456858
2023-07-29T01:23:19.162Z,9.456950
2023-07-29T01:24:19.156Z,9.456945
2023-07-29T01:25:19.154Z,9.456998
2023-07-29T01:26:19.148Z,9.457078
2023-07-29T01:27:19.123Z,9.456934
2023-07-29T01:28:19.202Z,9.457072
2023-07-29T01:29:19.097Z,9.457268
2023-07-29T01:30:19.103Z,9.457083
2023-07-29T01:31:19.091Z,9.457189
2023-07-29T01:32:19.072Z,9.457232
2023-07-29T01:33:19.073Z,9.457095
2023-07-29T01:34:19.058Z,9.457150
2023-07-29T01:35:19.063Z,9.457296
2023-07-29T01:36:19.023Z,9.457397
2023-07-29T01:37:19.023Z,9.457397
2023-07-29T01:38:19.013Z,9.457231
2023-07-29T01:39:19.035Z,9.457232
2023-07-29T01:40:19.020Z,9.457123
2023-07-29T01:41:18.999Z,9.457106
2023-07-29T01:42:18.973Z,9.457138
2023-07-29T01:43:18.962Z,9.457167
2023-07-29T01:44:18.970Z,9.457129
2023-07-29T01:45:18.960Z,9.457232
2023-07-29T01:46:18.955Z,9.457131
2023-07-29T01:47:18.923Z,9.457139
2023-07-29T01:48:18.923Z,9.457254
2023-07-29T01:49:18.951Z,9.456981
2023-07-29T01:50:18.905Z,9.457141
2023-07-29T01:51:18.908Z,9.457298
2023-07-29T01:52:18.890Z,9.457151
2023-07-29T01:53:18.907Z,9.457253
2023-07-29T01:54:18.887Z,9.457156
2023-07-29T01:55:18.982Z,9.457066
2023-07-29T01:56:18.844Z,9.457145
2023-07-29T01:57:18.834Z,9.457132
2023-07-29T01:58:18.926Z,9.457164
2023-07-29T01:59:18.818Z,9.457220
2023-07-29T02:00:18.809Z,9.457227
2023-07-29T02:01:18.816Z,9.457282
2023-07-29T02:02:18.779Z,9.457442
2023-07-29T02:03:18.791Z,9.457354
2023-07-29T02:04:18.832Z,9.457355
2023-07-29T02:05:18.760Z,9.457259
2023-07-29T02:06:18.736Z,9.457146
2023-07-29T02:07:18.750Z,9.457223
2023-07-29T02:08:18.747Z,9.457377
2023-07-29T02:09:18.714Z,9.457197
2023-07-29T02:10:18.715Z,9.457372
2023-07-29T02:11:18.696Z,9.457354
2023-07-29T02:12:18.698Z,9.457358
2023-07-29T02:13:18.687Z,9.457299
2023-07-29T02:14:18.659Z,9.457205
2023-07-29T02:15:18.654Z,9.457268
2023-07-29T02:16:18.650Z,9.457024
2023-07-29T02:17:18.656Z,9.457027
2023-07-29T02:18:18.631Z,9.456986
2023-07-29T02:19:18.618Z,9.457056
2023-07-29T02:20:18.619Z,9.457000
2023-07-29T02:21:18.608Z,9.457134
2023-07-29T02:22:18.599Z,9.457115
2023-07-29T02:23:18.592Z,9.457204
2023-07-29T02:24:18.557Z,9.457246
2023-07-29T02:25:18.555Z,9.457418
2023-07-29T02:26:18.555Z,9.457333
2023-07-29T02:27:18.551Z,9.457063
2023-07-29T02:28:18.555Z,9.457168
2023-07-29T02:29:18.509Z,9.457197
2023-07-29T02:30:18.503Z,9.457286
2023-07-29T02:31:18.599Z,9.457199
2023-07-29T02:32:18.502Z,9.456949
2023-07-29T02:33:18.559Z,9.456969
2023-07-29T02:34:18.454Z,9.457059
2023-07-29T02:35:18.469Z,9.457091
2023-07-29T02:36:18.463Z,9.457111
2023-07-29T02:37:18.460Z,9.457059
2023-07-29T02:38:18.426Z,9.457136
2023-07-29T02:39:18.447Z,9.457206
2023-07-29T02:40:18.465Z,9.457176
2023-07-29T02:41:18.396Z,9.457179
2023-07-29T02:42:18.400Z,9.457136
2023-07-29T02:43:18.398Z,9.457133
2023-07-29T02:44:18.383Z,9.457360
2023-07-29T02:45:18.389Z,9.457406
2023-07-29T02:46:18.450Z,9.457247
2023-07-29T02:47:18.367Z,9.457130
2023-07-29T02:48:18.331Z,9.457179
2023-07-29T02:49:18.387Z,9.457206
2023-07-29T02:50:18.364Z,9.457246
2023-07-29T02:51:18.285Z,9.457316
2023-07-29T02:52:18.280Z,9.457232
2023-07-29T02:53:18.276Z,9.457370
2023-07-29T02:54:18.282Z,9.457173
2023-07-29T02:55:18.265Z,9.457165
2023-07-29T02:56:18.247Z,9.457181
2023-07-29T02:57:18.238Z,9.457204
2023-07-29T02:58:18.219Z,9.457202
2023-07-29T02:59:18.236Z,9.457186
2023-07-29T03:00:18.208Z,9.457191
2023-07-29T03:01:18.234Z,9.457154
2023-07-29T03:02:18.182Z,9.457170
2023-07-29T03:03:18.274Z,9.457253
2023-07-29T03:04:18.173Z,9.457278
2023-07-29T03:05:18.146Z,9.457268
2023-07-29T03:06:18.232Z,9.457225
2023-07-29T03:07:18.141Z,9.457239
2023-07-29T03:08:18.143Z,9.457271
2023-07-29T03:09:18.106Z,9.457296
2023-07-29T03:10:18.274Z,9.457281
2023-07-29T03:11:18.091Z,9.457212
2023-07-29T03:12:18.079Z,9.457284
2023-07-29T03:13:18.125Z,9.457272
2023-07-29T03:14:18.056Z,9.457355
2023-07-29T03:15:18.058Z,9.457271
2023-07-29T03:16:18.078Z,9.457282
2023-07-29T03:17:18.049Z,9.457276
2023-07-29T03:18:18.032Z,9.457226
2023-07-29T03:19:18.015Z,9.457305
2023-07-29T03:20:17.991Z,9.457310
2023-07-29T03:21:17.985Z,9.457335
2023-07-29T03:22:18.004Z,9.457295
2023-07-29T03:23:18.001Z,9.457288
2023-07-29T03:24:17.958Z,9.457234
2023-07-29T03:25:17.934Z,9.457314
2023-07-29T03:26:17.931Z,9.457217
2023-07-29T03:27:17.939Z,9.457222
2023-07-29T03:28:17.938Z,9.457263
2023-07-29T03:29:17.914Z,9.457165
2023-07-29T03:30:17.894Z,9.457158
2023-07-29T03:31:17.985Z,9.457209
2023-07-29T03:32:17.888Z,9.457329
2023-07-29T03:33:17.862Z,9.457305
2023-07-29T03:34:17.857Z,9.457275
2023-07-29T03:35:17.841Z,9.457097
2023-07-29T03:36:17.877Z,9.457137
2023-07-29T03:37:17.826Z,9.457080
2023-07-29T03:38:17.816Z,9.457042
2023-07-29T03:39:17.791Z,9.457020
2023-07-29T03:40:17.787Z,9.457089
2023-07-29T03:41:17.795Z,9.457037
2023-07-29T03:42:17.774Z,9.457125
2023-07-29T03:43:17.767Z,9.457186
2023-07-29T03:44:17.748Z,9.457191
2023-07-29T03:45:17.750Z,9.457125
2023-07-29T03:46:17.820Z,9.457141
2023-07-29T03:47:17.720Z,9.457131
2023-07-29T03:48:17.714Z,9.457192
2023-07-29T03:49:17.701Z,9.457292
2023-07-29T03:50:17.706Z,9.457267
2023-07-29T03:51:17.681Z,9.457242
2023-07-29T03:52:17.670Z,9.457271
2023-07-29T03:53:17.656Z,9.457244
2023-07-29T03:54:17.645Z,9.457288
2023-07-29T03:55:17.670Z,9.457359
2023-07-29T03:56:17.641Z,9.457263
2023-07-29T03:57:17.625Z,9.457173
2023-07-29T03:58:17.613Z,9.457269
2023-07-29T03:59:17.625Z,9.457197
2023-07-29T04:00:17.610Z,9.457307
2023-07-29T04:01:17.607Z,9.457448
2023-07-29T04:02:17.561Z,9.457296
2023-07-29T04:03:17.635Z,9.457291
2023-07-29T04:04:17.651Z,9.457262
2023-07-29T04:05:17.585Z,9.457227
2023-07-29T04:06:17.532Z,9.457226
2023-07-29T04:07:17.529Z,9.457212
2023-07-29T04:08:17.534Z,9.457211
2023-07-29T04:09:17.528Z,9.457514
2023-07-29T04:10:17.504Z,9.457177
2023-07-29T04:11:17.481Z,9.457158
2023-07-29T04:12:17.472Z,9.457215
2023-07-29T04:13:17.489Z,9.457313
2023-07-29T04:14:17.487Z,9.457276
2023-07-29T04:15:17.441Z,9.457206
2023-07-29T04:16:17.486Z,9.457222
2023-07-29T04:17:17.426Z,9.457327
2023-07-29T04:18:17.448Z,9.457264
2023-07-29T04:19:17.398Z,9.457116
2023-07-29T04:20:49.296Z,9.457111
2023-07-29T04:21:17.386Z,9.457198
2023-07-29T04:22:17.378Z,9.457284
2023-07-29T04:23:17.380Z,9.457271
2023-07-29T04:24:17.368Z,9.457199
2023-07-29T04:25:17.348Z,9.457144
2023-07-29T04:26:17.339Z,9.457056
2023-07-29T04:27:17.351Z,9.457135
2023-07-29T04:28:17.411Z,9.457201
2023-07-29T04:29:17.305Z,9.457266
2023-07-29T04:30:17.299Z,9.457106
2023-07-29T04:31:17.297Z,9.457017
2023-07-29T04:32:17.308Z,9.457134
2023-07-29T04:33:17.268Z,9.457183
2023-07-29T04:34:17.264Z,9.457387
2023-07-29T04:35:17.261Z,9.457241
2023-07-29T04:36:17.234Z,9.457250
2023-07-29T04:37:17.249Z,9.457155
2023-07-29T04:38:17.219Z,9.457119
2023-07-29T04:39:17.273Z,9.457250
2023-07-29T04:40:17.194Z,9.457166
2023-07-29T04:41:17.204Z,9.457218
2023-07-29T04:42:17.196Z,9.457274
2023-07-29T04:43:17.170Z,9.457209
2023-07-29T04:44:17.154Z,9.457211
2023-07-29T04:45:17.149Z,9.457259
2023-07-29T04:46:17.255Z,9.457370
2023-07-29T04:47:17.143Z,9.457349
2023-07-29T04:48:17.110Z,9.457304
2023-07-29T04:49:17.108Z,9.457310
2023-07-29T04:50:17.108Z,9.457262
2023-07-29T04:51:17.107Z,9.457172
2023-07-29T04:52:17.070Z,9.457270
2023-07-29T04:53:17.067Z,9.457258
2023-07-29T04:54:17.073Z,9.457332
2023-07-29T04:55:17.047Z,9.457290
2023-07-29T04:56:18.816Z,9.457295
2023-07-29T04:57:18.035Z,9.457322
2023-07-29T04:58:17.082Z,9.457235
2023-07-29T04:59:17.023Z,9.457223
2023-07-29T05:00:17.054Z,9.457174
2023-07-29T05:01:17.036Z,9.457279
2023-07-29T05:02:16.975Z,9.457305
2023-07-29T05:03:16.964Z,9.457286
2023-07-29T05:04:17.001Z,9.457254
2023-07-29T05:05:16.951Z,9.457272
2023-07-29T05:06:16.936Z,9.457250
2023-07-29T05:07:16.923Z,9.457171
2023-07-29T05:08:16.909Z,9.457198
2023-07-29T05:09:16.952Z,9.457245
2023-07-29T05:10:16.910Z,9.457227
2023-07-29T05:11:16.884Z,9.457287
2023-07-29T05:12:16.870Z,9.457256
2023-07-29T05:13:16.859Z,9.457254
2023-07-29T05:14:16.894Z,9.457310
2023-07-29T05:15:17.869Z,9.457333
2023-07-29T05:16:17.764Z,9.457311
2023-07-29T05:17:16.818Z,9.457310
2023-07-29T05:18:16.816Z,9.457350
2023-07-29T05:19:16.827Z,9.457248
2023-07-29T05:20:16.789Z,9.457240
2023-07-29T05:21:16.783Z,9.457265
2023-07-29T05:22:16.778Z,9.457246
2023-07-29T05:23:16.759Z,9.457184
2023-07-29T05:24:16.768Z,9.457117
2023-07-29T05:25:16.741Z,9.457109
2023-07-29T05:26:16.740Z,9.457265
2023-07-29T05:27:16.720Z,9.457038
2023-07-29T05:28:16.787Z,9.457207
2023-07-29T05:29:16.720Z,9.457274
2023-07-29T05:30:16.683Z,9.457227
2023-07-29T05:31:16.706Z,9.457338
2023-07-29T05:32:16.696Z,9.457333
2023-07-29T05:33:16.808Z,9.457301
2023-07-29T05:34:16.682Z,9.457197
2023-07-29T05:35:16.637Z,9.457211
2023-07-29T05:36:16.645Z,9.457151
2023-07-29T05:37:16.646Z,9.457249
2023-07-29T05:38:16.620Z,9.457276
2023-07-29T05:39:16.596Z,9.457246
2023-07-29T05:40:16.591Z,9.457118
2023-07-29T05:41:16.585Z,9.457256
2023-07-29T05:42:16.601Z,9.457201
2023-07-29T05:43:16.558Z,9.457269
2023-07-29T05:44:16.549Z,9.457160
2023-07-29T05:45:16.534Z,9.457234
2023-07-29T05:46:16.542Z,9.457223
2023-07-29T05:47:16.537Z,9.457254
2023-07-29T05:48:16.516Z,9.457231
2023-07-29T05:49:16.507Z,9.457307
2023-07-29T05:50:16.491Z,9.457314
2023-07-29T05:51:16.494Z,9.457303
2023-07-29T05:52:16.500Z,9.457255
2023-07-29T05:53:16.469Z,9.457332
2023-07-29T05:54:16.451Z,9.457253
2023-07-29T05:55:16.440Z,9.457174
2023-07-29T05:56:16.449Z,9.457259
2023-07-29T05:57:16.447Z,9.457240
2023-07-29T05:58:16.401Z,9.457177
2023-07-29T05:59:16.407Z,9.457162
2023-07-29T06:00:16.401Z,9.457129
2023-07-29T06:01:16.436Z,9.457164
2023-07-29T06:02:16.361Z,9.457175
2023-07-29T06:03:16.400Z,9.457131
2023-07-29T06:04:16.343Z,9.457119
2023-07-29T06:05:16.352Z,9.457231
2023-07-29T06:06:16.342Z,9.457170
2023-07-29T06:07:16.304Z,9.457290
2023-07-29T06:08:16.301Z,9.457159
2023-07-29T06:09:16.279Z,9.457169
2023-07-29T06:10:16.300Z,9.457160
2023-07-29T06:11:16.288Z,9.457125
2023-07-29T06:12:16.272Z,9.457263
2023-07-29T06:13:16.250Z,9.457299
2023-07-29T06:14:16.245Z,9.457157
2023-07-29T06:15:16.285Z,9.457161
2023-07-29T06:16:16.244Z,9.457119
2023-07-29T06:17:16.225Z,9.457263
2023-07-29T06:18:16.220Z,9.457383
2023-07-29T06:19:16.224Z,9.457209
2023-07-29T06:20:16.207Z,9.457271
2023-07-29T06:21:16.173Z,9.457281
2023-07-29T06:22:16.168Z,9.457212
2023-07-29T06:23:16.153Z,9.457163
2023-07-29T06:24:16.171Z,9.457151
2023-07-29T06:25:16.184Z,9.457214
2023-07-29T06:26:16.132Z,9.457223
2023-07-29T06:27:16.110Z,9.457299
2023-07-29T06:28:16.139Z,9.457241
2023-07-29T06:29:16.111Z,9.457218
2023-07-29T06:30:16.088Z,9.457338
2023-07-29T06:31:16.112Z,9.457218
2023-07-29T06:32:16.069Z,9.457179
2023-07-29T06:33:16.073Z,9.457198
2023-07-29T06:34:16.154Z,9.457247
2023-07-29T06:35:16.040Z,9.457170
2023-07-29T06:36:16.035Z,9.457120
2023-07-29T06:37:16.024Z,9.457316
2023-07-29T06:38:16.029Z,9.457124
2023-07-29T06:39:15.985Z,9.457050
2023-07-29T06:40:15.992Z,9.457204
2023-07-29T06:41:17.538Z,9.457128
2023-07-29T06:42:15.971Z,9.457111
2023-07-29T06:43:15.991Z,9.457011
2023-07-29T06:44:15.947Z,9.457102
2023-07-29T06:45:16.944Z,9.457368
2023-07-29T06:46:15.976Z,9.457382
2023-07-29T06:47:15.948Z,9.457368
2023-07-29T06:48:15.932Z,9.457244
2023-07-29T06:49:15.908Z,9.457469
2023-07-29T06:50:15.889Z,9.457193
2023-07-29T06:51:15.875Z,9.457362
2023-07-29T06:52:15.907Z,9.457263
2023-07-29T06:53:15.856Z,9.457384
2023-07-29T06:54:15.851Z,9.457241
2023-07-29T06:55:15.844Z,9.457092
2023-07-29T06:56:15.828Z,9.457035
2023-07-29T06:57:15.840Z,9.457104
2023-07-29T06:58:15.812Z,9.457115
2023-07-29T06:59:15.803Z,9.457141
2023-07-29T07:00:15.796Z,9.457111
2023-07-29T07:01:15.820Z,9.457097
2023-07-29T07:02:15.805Z,9.457182
2023-07-29T07:03:15.881Z,9.457130
2023-07-29T07:04:15.756Z,9.457173
2023-07-29T07:05:15.757Z,9.457215
2023-07-29T07:06:15.758Z,9.457036
2023-07-29T07:07:15.734Z,9.457118
2023-07-29T07:08:15.717Z,9.457086
2023-07-29T07:09:15.703Z,9.457031
2023-07-29T07:10:15.735Z,9.457150
2023-07-29T07:11:15.699Z,9.457220
2023-07-29T07:12:15.684Z,9.457243
2023-07-29T07:13:15.664Z,9.457178
2023-07-29T07:14:15.642Z,9.457240
2023-07-29T07:15:16.674Z,9.457154
2023-07-29T07:16:15.671Z,9.457244
2023-07-29T07:17:15.620Z,9.457147
2023-07-29T07:18:15.612Z,9.457141
2023-07-29T07:19:15.598Z,9.457229
2023-07-29T07:20:15.633Z,9.457227
2023-07-29T07:21:15.585Z,9.457189
2023-07-29T07:22:15.570Z,9.457209
2023-07-29T07:23:15.561Z,9.457196
2023-07-29T07:24:15.549Z,9.457239
2023-07-29T07:25:15.565Z,9.457308
2023-07-29T07:26:15.526Z,9.457207
2023-07-29T07:27:15.528Z,9.457172
2023-07-29T07:28:15.575Z,9.457161
2023-07-29T07:29:15.545Z,9.457179
2023-07-29T07:30:15.508Z,9.457269
2023-07-29T07:31:16.224Z,9.457140
2023-07-29T07:32:15.485Z,9.457133
2023-07-29T07:33:15.470Z,9.457239
2023-07-29T07:34:15.484Z,9.457340
2023-07-29T07:35:15.446Z,9.457307
2023-07-29T07:36:15.449Z,9.457211
2023-07-29T07:37:15.443Z,9.457196
2023-07-29T07:38:15.416Z,9.457253
2023-07-29T07:39:15.433Z,9.457287
2023-07-29T07:40:15.407Z,9.457302
2023-07-29T07:41:15.392Z,9.457247
2023-07-29T07:42:15.379Z,9.457223
2023-07-29T07:43:15.406Z,9.457232
2023-07-29T07:44:15.384Z,9.457151
2023-07-29T07:45:15.358Z,9.457182
2023-07-29T07:46:15.375Z,9.457213
2023-07-29T07:47:15.331Z,9.457088
2023-07-29T07:48:15.346Z,9.457074
2023-07-29T07:49:15.331Z,9.457106
2023-07-29T07:50:15.308Z,9.457134
2023-07-29T07:51:15.298Z,9.457150
2023-07-29T07:52:15.307Z,9.457115
2023-07-29T07:53:15.286Z,9.457124
2023-07-29T07:54:15.268Z,9.457181
2023-07-29T07:55:15.255Z,9.457142
2023-07-29T07:56:15.244Z,9.457113
2023-07-29T07:57:15.275Z,9.457197
2023-07-29T07:58:15.227Z,9.457206
2023-07-29T07:59:17.602Z,9.457220
2023-07-29T08:00:15.205Z,9.457217
2023-07-29T08:01:15.208Z,9.457226
2023-07-29T08:02:15.210Z,9.457264
2023-07-29T08:03:15.227Z,9.457249
2023-07-29T08:04:15.157Z,9.457321
2023-07-29T08:05:15.149Z,9.457299
2023-07-29T08:06:15.175Z,9.457295
2023-07-29T08:07:15.172Z,9.457268
2023-07-29T08:08:15.125Z,9.457329
2023-07-29T08:09:15.133Z,9.457347
2023-07-29T08:10:15.111Z,9.457207
2023-07-29T08:11:15.114Z,9.457249
2023-07-29T08:12:16.015Z,9.457388
2023-07-29T08:13:15.090Z,9.457391
2023-07-29T08:14:15.057Z,9.457315
2023-07-29T08:15:15.059Z,9.457300
2023-07-29T08:16:15.112Z,9.457367
2023-07-29T08:17:15.045Z,9.457314
2023-07-29T08:18:15.020Z,9.457302
2023-07-29T08:19:15.021Z,9.457262
2023-07-29T08:20:15.017Z,9.457351
2023-07-29T08:21:15.012Z,9.457244
2023-07-29T08:22:14.990Z,9.457318
2023-07-29T08:23:15.113Z,9.457273
2023-07-29T08:24:14.961Z,9.457380
2023-07-29T08:25:14.990Z,9.457306
2023-07-29T08:26:15.036Z,9.457282
2023-07-29T08:27:14.939Z,9.457292
2023-07-29T08:28:14.984Z,9.457331
2023-07-29T08:29:14.957Z,9.457265
2023-07-29T08:30:14.973Z,9.457181
2023-07-29T08:31:14.949Z,9.457162
2023-07-29T08:32:14.882Z,9.457323
2023-07-29T08:33:14.906Z,9.457323
2023-07-29T08:34:15.258Z,9.457451
2023-07-29T08:35:14.916Z,9.457132
2023-07-29T08:36:14.842Z,9.457290
2023-07-29T08:37:14.893Z,9.457213
2023-07-29T08:38:14.827Z,9.457345
2023-07-29T08:39:14.852Z,9.457275
2023-07-29T08:40:14.796Z,9.457253
2023-07-29T08:41:14.860Z,9.457245
2023-07-29T08:42:14.777Z,9.456682
2023-07-29T08:43:14.791Z,9.457231
2023-07-29T08:44:14.792Z,9.457447
2023-07-29T08:45:14.881Z,9.457742
2023-07-29T08:46:14.781Z,9.457768
2023-07-29T08:47:14.921Z,9.457704
2023-07-29T08:48:15.767Z,9.457432
2023-07-29T08:49:14.736Z,9.457397
2023-07-29T08:50:15.492Z,9.457397
2023-07-29T08:51:15.695Z,9.457403
2023-07-29T08:52:14.673Z,9.457293
2023-07-29T08:53:14.921Z,9.457319
2023-07-29T08:54:14.657Z,9.457450
2023-07-29T08:55:14.653Z,9.457133
2023-07-29T08:56:14.686Z,9.457142
2023-07-29T08:57:15.350Z,9.457150
2023-07-29T08:58:14.606Z,9.457155
2023-07-29T08:59:14.617Z,9.457184
2023-07-29T09:00:14.608Z,9.457190
2023-07-29T09:01:14.600Z,9.457196
2023-07-29T09:02:14.690Z,9.457272
2023-07-29T09:03:14.676Z,9.457312
2023-07-29T09:04:14.554Z,9.457232
2023-07-29T09:05:14.555Z,9.457135
2023-07-29T09:06:14.610Z,9.457211
2023-07-29T09:07:14.560Z,9.457261
2023-07-29T09:08:14.510Z,9.457265
2023-07-29T09:09:14.504Z,9.457267
2023-07-29T09:10:14.473Z,9.457324
2023-07-29T09:11:14.483Z,9.457365
2023-07-29T09:12:14.479Z,9.457331
2023-07-29T09:13:14.478Z,9.457265
2023-07-29T09:14:14.454Z,9.457212
2023-07-29T09:15:14.446Z,9.457326
2023-07-29T09:16:14.454Z,9.457279
2023-07-29T09:17:14.483Z,9.457335
2023-07-29T09:18:15.442Z,9.457318
2023-07-29T09:19:14.437Z,9.457246
2023-07-29T09:20:14.397Z,9.457283
2023-07-29T09:21:14.371Z,9.457245
2023-07-29T09:22:14.388Z,9.457426
2023-07-29T09:23:14.423Z,9.457423
2023-07-29T09:24:14.338Z,9.457174
2023-07-29T09:25:14.334Z,9.457157
2023-07-29T09:26:14.329Z,9.457270
2023-07-29T09:27:14.342Z,9.457372
2023-07-29T09:28:14.349Z,9.457408
2023-07-29T09:29:14.296Z,9.457214
2023-07-29T09:30:14.319Z,9.457228
2023-07-29T09:31:14.321Z,9.457178
2023-07-29T09:32:14.275Z,9.457268
2023-07-29T09:33:14.305Z,9.457232
2023-07-29T09:34:14.269Z,9.457307
2023-07-29T09:35:14.295Z,9.457229
2023-07-29T09:36:14.264Z,9.457245
2023-07-29T09:37:14.261Z,9.457211
2023-07-29T09:38:14.213Z,9.457180
2023-07-29T09:39:14.293Z,9.457217
2023-07-29T09:40:14.187Z,9.457279
2023-07-29T09:41:14.207Z,9.457405
2023-07-29T09:42:14.172Z,9.457375
2023-07-29T09:43:14.156Z,9.457302
2023-07-29T09:44:14.156Z,9.457334
2023-07-29T09:45:14.135Z,9.457183
2023-07-29T09:46:14.201Z,9.457181
2023-07-29T09:47:14.149Z,9.457171
2023-07-29T09:48:14.108Z,9.457208
2023-07-29T09:49:14.109Z,9.457200
2023-07-29T09:50:14.101Z,9.457226
2023-07-29T09:51:14.091Z,9.457204
2023-07-29T09:52:14.064Z,9.457163
2023-07-29T09:53:14.061Z,9.457244
2023-07-29T09:54:14.047Z,9.457236
2023-07-29T09:55:14.037Z,9.457324
2023-07-29T09:56:14.050Z,9.457344
2023-07-29T09:57:14.027Z,9.457294
2023-07-29T09:58:14.015Z,9.457254
2023-07-29T09:59:14.067Z,9.457232
2023-07-29T10:00:13.989Z,9.457202
2023-07-29T10:01:14.082Z,9.457209
2023-07-29T10:02:14.037Z,9.457219
2023-07-29T10:03:14.064Z,9.457266
2023-07-29T10:04:14.106Z,9.457336
2023-07-29T10:05:13.944Z,9.457283
2023-07-29T10:06:13.962Z,9.457289
2023-07-29T10:07:13.917Z,9.457380
2023-07-29T10:08:13.942Z,9.457310
2023-07-29T10:09:13.938Z,9.457275
2023-07-29T10:10:13.892Z,9.457340
2023-07-29T10:11:13.883Z,9.457308
2023-07-29T10:12:13.874Z,9.457300
2023-07-29T10:13:13.903Z,9.457233
2023-07-29T10:14:14.859Z,9.457179
2023-07-29T10:15:13.841Z,9.457190
2023-07-29T10:16:13.841Z,9.457258
2023-07-29T10:17:13.831Z,9.457249
2023-07-29T10:18:13.902Z,9.457230
2023-07-29T10:19:13.826Z,9.457230
2023-07-29T10:20:13.792Z,9.457220
2023-07-29T10:21:16.309Z,9.457271
2023-07-29T10:22:45.673Z,9.457300
2023-07-29T10:23:13.796Z,9.457347
2023-07-29T10:24:13.748Z,9.457250
2023-07-29T10:25:13.743Z,9.457314
2023-07-29T10:26:13.727Z,9.457283
2023-07-29T10:27:13.714Z,9.457217
2023-07-29T10:28:13.778Z,9.457236
2023-07-29T10:37:37.384Z,9.457211
2023-07-29T10:38:37.369Z,9.457158
2023-07-29T10:39:37.369Z,9.457055
2023-07-29T10:40:37.369Z,9.457062
2023-07-29T10:41:37.357Z,9.457178
2023-07-29T10:42:37.339Z,9.457202
2023-07-29T10:43:37.341Z,9.457222
2023-07-29T10:44:37.338Z,9.457239
2023-07-29T10:45:37.408Z,9.457290
2023-07-29T10:46:37.515Z,9.457324
2023-07-29T10:47:37.380Z,9.457279
2023-07-29T10:48:37.279Z,9.457226
2023-07-29T10:49:37.285Z,9.457227
2023-07-29T10:50:37.258Z,9.457277
2023-07-29T10:51:37.259Z,9.457247
2023-07-29T10:52:37.276Z,9.457236
2023-07-29T10:53:37.244Z,9.457204
2023-07-29T10:54:37.273Z,9.457211
2023-07-29T10:55:37.210Z,9.457183
2023-07-29T10:56:37.401Z,9.457174
2023-07-29T10:57:37.234Z,9.457110
2023-07-29T10:58:37.193Z,9.457117
2023-07-29T10:59:37.198Z,9.457087
2023-07-29T11:00:37.181Z,9.457059
2023-07-29T11:01:37.209Z,9.457049
2023-07-29T11:02:37.160Z,9.457057
2023-07-29T11:03:37.161Z,9.457243
2023-07-29T11:04:37.194Z,9.457179
2023-07-29T11:05:37.118Z,9.457157
2023-07-29T11:06:37.413Z,9.457189
2023-07-29T11:07:38.095Z,9.457237
2023-07-29T11:08:37.113Z,9.457315
2023-07-29T11:09:37.092Z,9.457276
2023-07-29T11:10:37.067Z,9.457218
2023-07-29T11:11:37.063Z,9.457213
2023-07-29T11:12:37.072Z,9.457153
2023-07-29T11:13:37.062Z,9.457081
2023-07-29T11:14:37.033Z,9.457248
2023-07-29T11:15:37.049Z,9.457180
2023-07-29T11:16:37.352Z,9.457196
2023-07-29T11:17:37.034Z,9.457152
2023-07-29T11:18:36.996Z,9.456989
2023-07-29T11:19:37.983Z,9.456985
2023-07-29T11:20:36.987Z,9.457083
2023-07-29T11:21:36.959Z,9.457087
2023-07-29T11:22:36.990Z,9.457185
2023-07-29T11:23:36.946Z,9.457199
2023-07-29T11:24:36.922Z,9.457092
2023-07-29T11:25:36.934Z,9.456950
2023-07-29T11:26:37.204Z,9.457072
2023-07-29T11:27:36.908Z,9.457076
2023-07-29T11:28:36.904Z,9.457064
2023-07-29T11:29:36.879Z,9.457036
2023-07-29T11:30:36.872Z,9.457005
2023-07-29T11:31:36.923Z,9.457135
2023-07-29T11:32:36.878Z,9.457148
2023-07-29T11:33:36.838Z,9.457118
2023-07-29T11:34:36.837Z,9.457129
2023-07-29T11:35:36.830Z,9.457099
2023-07-29T11:36:37.010Z,9.457120
2023-07-29T11:37:36.823Z,9.457139
2023-07-29T11:38:36.790Z,9.457061
2023-07-29T11:39:36.783Z,9.457041
2023-07-29T11:40:36.797Z,9.456942
2023-07-29T11:41:36.782Z,9.457023
2023-07-29T11:42:36.751Z,9.457065
2023-07-29T11:43:36.753Z,9.457024
2023-07-29T11:44:36.728Z,9.457081
2023-07-29T11:45:51.443Z,9.457114
2023-07-29T11:46:38.961Z,9.457100
2023-07-29T11:47:36.714Z,9.457160
2023-07-29T11:48:36.691Z,9.457285
2023-07-29T11:49:36.689Z,9.457305
2023-07-29T11:50:36.694Z,9.457253
2023-07-29T11:51:36.664Z,9.457222
2023-07-29T11:52:36.659Z,9.457226
2023-07-29T11:53:36.656Z,9.457286
2023-07-29T11:54:36.661Z,9.457159
2023-07-29T11:55:36.658Z,9.457290
2023-07-29T11:56:36.816Z,9.457166
2023-07-29T11:57:36.605Z,9.457151
2023-07-29T11:58:36.590Z,9.457107
2023-07-29T11:59:36.610Z,9.457093
2023-07-29T12:00:36.579Z,9.457125
2023-07-29T12:01:36.680Z,9.457142
2023-07-29T12:02:36.568Z,9.457291
2023-07-29T12:03:36.587Z,9.457234